sensor_id;sensor_type;location;lat;lon;timestamp;P1;P2;P0
64627;PMS5003;68467;50.960;0.314;2023-04-01T00:01:44;11;10;
64627;PMS5003;68467;50.960;0.314;2023-04-01T00:04:11;11;11;
64627;PMS5003;68467;50.960;0.314;2023-04-01T00:06:38;12;10;
64627;PMS5003;68467;50.960;0.314;2023-04-01T00:09:05;12;11;
64627;PMS5003;68467;50.960;0.314;2023-04-01T00:11:32;12;12;
64627;PMS5003;68467;50.960;0.314;2023-04-01T00:13:59;14;13;
64627;PMS5003;68467;50.960;0.314;2023-04-01T00:16:26;12;12;
64627;PMS5003;68467;50.960;0.314;2023-04-01T00:18:53;10;10;
64627;PMS5003;68467;50.960;0.314;2023-04-01T00:21:20;12;11;
64627;PMS5003;68467;50.960;0.314;2023-04-01T00:23:48;12;12;
64627;PMS5003;68467;50.960;0.314;2023-04-01T00:26:16;10;9;
64627;PMS5003;68467;50.960;0.314;2023-04-01T00:28:44;11;10;
64627;PMS5003;68467;50.960;0.314;2023-04-01T00:31:12;10;9;
64627;PMS5003;68467;50.960;0.314;2023-04-01T00:33:40;8;8;
64627;PMS5003;68467;50.960;0.314;2023-04-01T00:36:08;7;7;
64627;PMS5003;68467;50.960;0.314;2023-04-01T00:38:37;8;8;
64627;PMS5003;68467;50.960;0.314;2023-04-01T00:41:05;7;7;
64627;PMS5003;68467;50.960;0.314;2023-04-01T00:43:33;6;6;
64627;PMS5003;68467;50.960;0.314;2023-04-01T00:46:01;5;5;
64627;PMS5003;68467;50.960;0.314;2023-04-01T00:48:28;6;6;
64627;PMS5003;68467;50.960;0.314;2023-04-01T00:51:00;7;7;
64627;PMS5003;68467;50.960;0.314;2023-04-01T00:53:30;7;7;
64627;PMS5003;68467;50.960;0.314;2023-04-01T00:56:01;9;9;
64627;PMS5003;68467;50.960;0.314;2023-04-01T00:58:34;10;10;
64627;PMS5003;68467;50.960;0.314;2023-04-01T01:01:05;11;11;
64627;PMS5003;68467;50.960;0.314;2023-04-01T01:03:34;11;10;
64627;PMS5003;68467;50.960;0.314;2023-04-01T01:06:10;10;10;
64627;PMS5003;68467;50.960;0.314;2023-04-01T01:08:50;14;13;
64627;PMS5003;68467;50.960;0.314;2023-04-01T01:11:30;13;12;
64627;PMS5003;68467;50.960;0.314;2023-04-01T01:14:06;10;10;
64627;PMS5003;68467;50.960;0.314;2023-04-01T01:16:41;10;9;
64627;PMS5003;68467;50.960;0.314;2023-04-01T01:19:17;11;11;
64627;PMS5003;68467;50.960;0.314;2023-04-01T01:22:04;11;11;
64627;PMS5003;68467;50.960;0.314;2023-04-01T01:24:54;13;13;
64627;PMS5003;68467;50.960;0.314;2023-04-01T01:27:35;13;12;
64627;PMS5003;68467;50.960;0.314;2023-04-01T01:30:12;11;11;
64627;PMS5003;68467;50.960;0.314;2023-04-01T01:32:58;13;13;
64627;PMS5003;68467;50.960;0.314;2023-04-01T01:35:36;11;11;
64627;PMS5003;68467;50.960;0.314;2023-04-01T01:38:06;9;9;
64627;PMS5003;68467;50.960;0.314;2023-04-01T01:40:37;9;9;
64627;PMS5003;68467;50.960;0.314;2023-04-01T01:43:08;10;10;
64627;PMS5003;68467;50.960;0.314;2023-04-01T01:45:39;12;11;
64627;PMS5003;68467;50.960;0.314;2023-04-01T01:48:22;10;8;
64627;PMS5003;68467;50.960;0.314;2023-04-01T01:50:51;9;9;
64627;PMS5003;68467;50.960;0.314;2023-04-01T01:53:20;10;10;
64627;PMS5003;68467;50.960;0.314;2023-04-01T01:55:47;10;10;
64627;PMS5003;68467;50.960;0.314;2023-04-01T01:58:16;9;9;
64627;PMS5003;68467;50.960;0.314;2023-04-01T02:00:50;10;9;
64627;PMS5003;68467;50.960;0.314;2023-04-01T02:03:20;9;8;
64627;PMS5003;68467;50.960;0.314;2023-04-01T02:05:49;9;9;
64627;PMS5003;68467;50.960;0.314;2023-04-01T02:08:20;11;10;
64627;PMS5003;68467;50.960;0.314;2023-04-01T02:10:53;9;9;
64627;PMS5003;68467;50.960;0.314;2023-04-01T02:13:24;11;11;
64627;PMS5003;68467;50.960;0.314;2023-04-01T02:15:58;11;11;
64627;PMS5003;68467;50.960;0.314;2023-04-01T02:18:28;9;9;
64627;PMS5003;68467;50.960;0.314;2023-04-01T02:20:58;14;13;
64627;PMS5003;68467;50.960;0.314;2023-04-01T02:23:26;16;14;
64627;PMS5003;68467;50.960;0.314;2023-04-01T02:25:55;13;12;
64627;PMS5003;68467;50.960;0.314;2023-04-01T02:28:22;13;12;
64627;PMS5003;68467;50.960;0.314;2023-04-01T02:30:50;11;11;
64627;PMS5003;68467;50.960;0.314;2023-04-01T02:33:19;12;12;
64627;PMS5003;68467;50.960;0.314;2023-04-01T02:35:47;17;16;
64627;PMS5003;68467;50.960;0.314;2023-04-01T02:38:14;13;12;
64627;PMS5003;68467;50.960;0.314;2023-04-01T02:40:42;10;10;
64627;PMS5003;68467;50.960;0.314;2023-04-01T02:43:12;13;13;
64627;PMS5003;68467;50.960;0.314;2023-04-01T02:45:39;15;14;
64627;PMS5003;68467;50.960;0.314;2023-04-01T02:48:06;14;14;
64627;PMS5003;68467;50.960;0.314;2023-04-01T02:50:35;17;15;
64627;PMS5003;68467;50.960;0.314;2023-04-01T02:53:02;12;12;
64627;PMS5003;68467;50.960;0.314;2023-04-01T02:55:29;13;13;
64627;PMS5003;68467;50.960;0.314;2023-04-01T02:57:56;16;16;
64627;PMS5003;68467;50.960;0.314;2023-04-01T03:00:24;12;12;
64627;PMS5003;68467;50.960;0.314;2023-04-01T03:02:52;14;13;
64627;PMS5003;68467;50.960;0.314;2023-04-01T03:05:19;15;14;
64627;PMS5003;68467;50.960;0.314;2023-04-01T03:07:46;16;15;
64627;PMS5003;68467;50.960;0.314;2023-04-01T03:10:14;15;14;
64627;PMS5003;68467;50.960;0.314;2023-04-01T03:12:41;14;13;
64627;PMS5003;68467;50.960;0.314;2023-04-01T03:15:09;17;16;
64627;PMS5003;68467;50.960;0.314;2023-04-01T03:17:37;13;12;
64627;PMS5003;68467;50.960;0.314;2023-04-01T03:20:06;16;14;
64627;PMS5003;68467;50.960;0.314;2023-04-01T03:22:34;12;12;
64627;PMS5003;68467;50.960;0.314;2023-04-01T03:25:02;12;12;
64627;PMS5003;68467;50.960;0.314;2023-04-01T03:27:29;11;11;
64627;PMS5003;68467;50.960;0.314;2023-04-01T03:29:56;12;12;
64627;PMS5003;68467;50.960;0.314;2023-04-01T03:32:24;12;12;
64627;PMS5003;68467;50.960;0.314;2023-04-01T03:34:52;11;11;
64627;PMS5003;68467;50.960;0.314;2023-04-01T03:37:19;10;10;
64627;PMS5003;68467;50.960;0.314;2023-04-01T03:39:46;10;10;
64627;PMS5003;68467;50.960;0.314;2023-04-01T03:42:13;12;11;
64627;PMS5003;68467;50.960;0.314;2023-04-01T03:44:41;10;10;
64627;PMS5003;68467;50.960;0.314;2023-04-01T03:47:08;7;7;
64627;PMS5003;68467;50.960;0.314;2023-04-01T03:49:35;8;8;
64627;PMS5003;68467;50.960;0.314;2023-04-01T03:52:03;9;9;
64627;PMS5003;68467;50.960;0.314;2023-04-01T03:54:30;8;8;
64627;PMS5003;68467;50.960;0.314;2023-04-01T03:56:58;10;10;
64627;PMS5003;68467;50.960;0.314;2023-04-01T03:59:26;9;9;
64627;PMS5003;68467;50.960;0.314;2023-04-01T04:01:53;7;7;
64627;PMS5003;68467;50.960;0.314;2023-04-01T04:04:21;7;7;
64627;PMS5003;68467;50.960;0.314;2023-04-01T04:06:49;7;7;
64627;PMS5003;68467;50.960;0.314;2023-04-01T04:09:16;6;6;
64627;PMS5003;68467;50.960;0.314;2023-04-01T04:11:44;5;5;
64627;PMS5003;68467;50.960;0.314;2023-04-01T04:14:11;6;6;
64627;PMS5003;68467;50.960;0.314;2023-04-01T04:16:38;7;6;
64627;PMS5003;68467;50.960;0.314;2023-04-01T04:19:06;4;4;
64627;PMS5003;68467;50.960;0.314;2023-04-01T04:21:34;3;3;
64627;PMS5003;68467;50.960;0.314;2023-04-01T04:24:02;4;4;
64627;PMS5003;68467;50.960;0.314;2023-04-01T04:26:30;4;4;
64627;PMS5003;68467;50.960;0.314;2023-04-01T04:28:57;3;3;
64627;PMS5003;68467;50.960;0.314;2023-04-01T04:31:25;5;5;
64627;PMS5003;68467;50.960;0.314;2023-04-01T04:33:53;4;4;
64627;PMS5003;68467;50.960;0.314;2023-04-01T04:36:21;5;5;
64627;PMS5003;68467;50.960;0.314;2023-04-01T04:38:48;4;4;
64627;PMS5003;68467;50.960;0.314;2023-04-01T04:41:16;5;5;
64627;PMS5003;68467;50.960;0.314;2023-04-01T04:43:48;5;5;
64627;PMS5003;68467;50.960;0.314;2023-04-01T04:46:17;6;6;
64627;PMS5003;68467;50.960;0.314;2023-04-01T04:48:44;6;6;
64627;PMS5003;68467;50.960;0.314;2023-04-01T04:51:13;6;6;
64627;PMS5003;68467;50.960;0.314;2023-04-01T04:53:41;7;7;
64627;PMS5003;68467;50.960;0.314;2023-04-01T04:56:09;8;8;
64627;PMS5003;68467;50.960;0.314;2023-04-01T04:58:38;9;9;
64627;PMS5003;68467;50.960;0.314;2023-04-01T05:01:06;7;7;
64627;PMS5003;68467;50.960;0.314;2023-04-01T05:03:35;7;7;
64627;PMS5003;68467;50.960;0.314;2023-04-01T05:06:03;7;7;
64627;PMS5003;68467;50.960;0.314;2023-04-01T05:08:32;8;7;
64627;PMS5003;68467;50.960;0.314;2023-04-01T05:11:00;8;8;
64627;PMS5003;68467;50.960;0.314;2023-04-01T05:13:28;8;7;
64627;PMS5003;68467;50.960;0.314;2023-04-01T05:15:55;10;9;
64627;PMS5003;68467;50.960;0.314;2023-04-01T05:18:22;9;9;
64627;PMS5003;68467;50.960;0.314;2023-04-01T05:20:50;9;8;
64627;PMS5003;68467;50.960;0.314;2023-04-01T05:23:19;7;7;
64627;PMS5003;68467;50.960;0.314;2023-04-01T05:25:48;8;8;
64627;PMS5003;68467;50.960;0.314;2023-04-01T05:28:16;8;8;
64627;PMS5003;68467;50.960;0.314;2023-04-01T05:30:43;7;7;
64627;PMS5003;68467;50.960;0.314;2023-04-01T05:33:11;7;6;
64627;PMS5003;68467;50.960;0.314;2023-04-01T05:35:39;8;8;
64627;PMS5003;68467;50.960;0.314;2023-04-01T05:38:06;8;8;
64627;PMS5003;68467;50.960;0.314;2023-04-01T05:40:34;12;11;
64627;PMS5003;68467;50.960;0.314;2023-04-01T05:43:01;9;8;
64627;PMS5003;68467;50.960;0.314;2023-04-01T05:45:29;8;7;
64627;PMS5003;68467;50.960;0.314;2023-04-01T05:47:57;7;7;
64627;PMS5003;68467;50.960;0.314;2023-04-01T05:50:25;9;8;
64627;PMS5003;68467;50.960;0.314;2023-04-01T05:52:52;7;7;
64627;PMS5003;68467;50.960;0.314;2023-04-01T05:55:19;8;7;
64627;PMS5003;68467;50.960;0.314;2023-04-01T05:57:47;8;8;
64627;PMS5003;68467;50.960;0.314;2023-04-01T06:00:15;6;6;
64627;PMS5003;68467;50.960;0.314;2023-04-01T06:02:42;7;6;
64627;PMS5003;68467;50.960;0.314;2023-04-01T06:05:12;8;8;
64627;PMS5003;68467;50.960;0.314;2023-04-01T06:07:42;7;7;
64627;PMS5003;68467;50.960;0.314;2023-04-01T06:10:11;8;8;
64627;PMS5003;68467;50.960;0.314;2023-04-01T06:12:45;7;6;
64627;PMS5003;68467;50.960;0.314;2023-04-01T06:15:23;7;7;
64627;PMS5003;68467;50.960;0.314;2023-04-01T06:18:07;6;6;
64627;PMS5003;68467;50.960;0.314;2023-04-01T06:20:57;7;6;
64627;PMS5003;68467;50.960;0.314;2023-04-01T06:23:37;6;6;
64627;PMS5003;68467;50.960;0.314;2023-04-01T06:26:18;10;8;
64627;PMS5003;68467;50.960;0.314;2023-04-01T06:30:02;8;8;
64627;PMS5003;68467;50.960;0.314;2023-04-01T06:32:48;6;6;
64627;PMS5003;68467;50.960;0.314;2023-04-01T06:35:31;10;9;
64627;PMS5003;68467;50.960;0.314;2023-04-01T06:38:12;8;8;
64627;PMS5003;68467;50.960;0.314;2023-04-01T06:41:03;10;10;
64627;PMS5003;68467;50.960;0.314;2023-04-01T06:43:51;14;13;
64627;PMS5003;68467;50.960;0.314;2023-04-01T06:46:28;13;12;
64627;PMS5003;68467;50.960;0.314;2023-04-01T06:49:06;23;20;
64627;PMS5003;68467;50.960;0.314;2023-04-01T06:51:50;20;19;
64627;PMS5003;68467;50.960;0.314;2023-04-01T06:54:24;11;10;
64627;PMS5003;68467;50.960;0.314;2023-04-01T06:56:59;13;13;
64627;PMS5003;68467;50.960;0.314;2023-04-01T06:59:30;13;12;
64627;PMS5003;68467;50.960;0.314;2023-04-01T07:02:02;14;14;
64627;PMS5003;68467;50.960;0.314;2023-04-01T07:04:40;12;12;
64627;PMS5003;68467;50.960;0.314;2023-04-01T07:07:14;12;12;
64627;PMS5003;68467;50.960;0.314;2023-04-01T07:09:48;9;8;
64627;PMS5003;68467;50.960;0.314;2023-04-01T07:12:21;8;7;
64627;PMS5003;68467;50.960;0.314;2023-04-01T07:14:58;9;9;
64627;PMS5003;68467;50.960;0.314;2023-04-01T07:17:31;9;9;
64627;PMS5003;68467;50.960;0.314;2023-04-01T07:20:03;5;5;
64627;PMS5003;68467;50.960;0.314;2023-04-01T07:22:38;7;7;
64627;PMS5003;68467;50.960;0.314;2023-04-01T07:25:12;8;7;
64627;PMS5003;68467;50.960;0.314;2023-04-01T07:27:40;6;6;
64627;PMS5003;68467;50.960;0.314;2023-04-01T07:30:13;8;7;
64627;PMS5003;68467;50.960;0.314;2023-04-01T07:32:44;7;7;
64627;PMS5003;68467;50.960;0.314;2023-04-01T07:35:22;7;6;
64627;PMS5003;68467;50.960;0.314;2023-04-01T07:37:58;6;6;
64627;PMS5003;68467;50.960;0.314;2023-04-01T07:40:37;6;5;
64627;PMS5003;68467;50.960;0.314;2023-04-01T07:43:13;7;5;
64627;PMS5003;68467;50.960;0.314;2023-04-01T07:45:55;6;6;
64627;PMS5003;68467;50.960;0.314;2023-04-01T07:48:30;7;7;
64627;PMS5003;68467;50.960;0.314;2023-04-01T07:51:06;7;6;
64627;PMS5003;68467;50.960;0.314;2023-04-01T07:53:41;7;7;
64627;PMS5003;68467;50.960;0.314;2023-04-01T07:56:15;7;7;
64627;PMS5003;68467;50.960;0.314;2023-04-01T07:58:52;6;5;
64627;PMS5003;68467;50.960;0.314;2023-04-01T08:01:32;8;6;
64627;PMS5003;68467;50.960;0.314;2023-04-01T08:04:12;7;6;
64627;PMS5003;68467;50.960;0.314;2023-04-01T08:06:51;7;7;
64627;PMS5003;68467;50.960;0.314;2023-04-01T08:09:27;8;8;
64627;PMS5003;68467;50.960;0.314;2023-04-01T08:12:04;6;6;
64627;PMS5003;68467;50.960;0.314;2023-04-01T08:14:43;4;4;
64627;PMS5003;68467;50.960;0.314;2023-04-01T08:17:20;7;7;
64627;PMS5003;68467;50.960;0.314;2023-04-01T08:19:58;6;6;
64627;PMS5003;68467;50.960;0.314;2023-04-01T08:22:36;7;7;
64627;PMS5003;68467;50.960;0.314;2023-04-01T08:25:10;10;9;
64627;PMS5003;68467;50.960;0.314;2023-04-01T08:27:44;8;7;
64627;PMS5003;68467;50.960;0.314;2023-04-01T08:30:16;12;10;
64627;PMS5003;68467;50.960;0.314;2023-04-01T08:32:48;8;8;
64627;PMS5003;68467;50.960;0.314;2023-04-01T08:35:21;9;8;
64627;PMS5003;68467;50.960;0.314;2023-04-01T08:37:54;8;8;
64627;PMS5003;68467;50.960;0.314;2023-04-01T08:41:00;10;10;
64627;PMS5003;68467;50.960;0.314;2023-04-01T08:43:43;9;8;
64627;PMS5003;68467;50.960;0.314;2023-04-01T08:46:43;8;8;
64627;PMS5003;68467;50.960;0.314;2023-04-01T08:49:27;6;6;
64627;PMS5003;68467;50.960;0.314;2023-04-01T08:52:09;7;7;
64627;PMS5003;68467;50.960;0.314;2023-04-01T08:54:46;8;8;
64627;PMS5003;68467;50.960;0.314;2023-04-01T08:57:32;4;4;
64627;PMS5003;68467;50.960;0.314;2023-04-01T09:00:12;6;6;
64627;PMS5003;68467;50.960;0.314;2023-04-01T09:02:58;6;5;
64627;PMS5003;68467;50.960;0.314;2023-04-01T09:06:19;4;4;
64627;PMS5003;68467;50.960;0.314;2023-04-01T09:08:59;4;4;
64627;PMS5003;68467;50.960;0.314;2023-04-01T09:11:54;4;4;
64627;PMS5003;68467;50.960;0.314;2023-04-01T09:14:41;6;6;
64627;PMS5003;68467;50.960;0.314;2023-04-01T09:17:37;4;4;
64627;PMS5003;68467;50.960;0.314;2023-04-01T09:20:58;9;9;
64627;PMS5003;68467;50.960;0.314;2023-04-01T09:23:45;8;7;
64627;PMS5003;68467;50.960;0.314;2023-04-01T09:26:28;14;13;
64627;PMS5003;68467;50.960;0.314;2023-04-01T09:29:13;16;15;
64627;PMS5003;68467;50.960;0.314;2023-04-01T09:32:01;5;5;
64627;PMS5003;68467;50.960;0.314;2023-04-01T09:34:53;10;8;
64627;PMS5003;68467;50.960;0.314;2023-04-01T09:37:27;12;11;
64627;PMS5003;68467;50.960;0.314;2023-04-01T09:40:09;9;8;
64627;PMS5003;68467;50.960;0.314;2023-04-01T09:42:45;5;5;
64627;PMS5003;68467;50.960;0.314;2023-04-01T09:45:31;6;6;
64627;PMS5003;68467;50.960;0.314;2023-04-01T09:48:11;7;7;
64627;PMS5003;68467;50.960;0.314;2023-04-01T09:50:50;7;7;
64627;PMS5003;68467;50.960;0.314;2023-04-01T09:53:30;7;6;
64627;PMS5003;68467;50.960;0.314;2023-04-01T09:56:17;10;7;
64627;PMS5003;68467;50.960;0.314;2023-04-01T09:59:15;7;6;
64627;PMS5003;68467;50.960;0.314;2023-04-01T10:02:18;11;11;
64627;PMS5003;68467;50.960;0.314;2023-04-01T10:07:27;11;9;
64627;PMS5003;68467;50.960;0.314;2023-04-01T10:12:49;7;6;
64627;PMS5003;68467;50.960;0.314;2023-04-01T10:15:41;8;8;
64627;PMS5003;68467;50.960;0.314;2023-04-01T10:18:48;10;9;
64627;PMS5003;68467;50.960;0.314;2023-04-01T10:21:37;8;7;
64627;PMS5003;68467;50.960;0.314;2023-04-01T10:25:01;9;8;
64627;PMS5003;68467;50.960;0.314;2023-04-01T10:28:02;8;7;
64627;PMS5003;68467;50.960;0.314;2023-04-01T10:31:13;11;11;
64627;PMS5003;68467;50.960;0.314;2023-04-01T10:36:24;8;8;
64627;PMS5003;68467;50.960;0.314;2023-04-01T10:39:12;5;5;
64627;PMS5003;68467;50.960;0.314;2023-04-01T10:42:39;5;5;
64627;PMS5003;68467;50.960;0.314;2023-04-01T10:45:54;5;4;
64627;PMS5003;68467;50.960;0.314;2023-04-01T10:48:42;8;8;
64627;PMS5003;68467;50.960;0.314;2023-04-01T10:51:14;8;8;
64627;PMS5003;68467;50.960;0.314;2023-04-01T10:53:58;6;6;
64627;PMS5003;68467;50.960;0.314;2023-04-01T10:56:40;7;7;
64627;PMS5003;68467;50.960;0.314;2023-04-01T10:59:15;8;8;
64627;PMS5003;68467;50.960;0.314;2023-04-01T11:04:25;8;8;
64627;PMS5003;68467;50.960;0.314;2023-04-01T11:07:27;8;7;
64627;PMS5003;68467;50.960;0.314;2023-04-01T11:10:21;8;7;
64627;PMS5003;68467;50.960;0.314;2023-04-01T11:16:35;10;10;
64627;PMS5003;68467;50.960;0.314;2023-04-01T11:19:33;8;8;
64627;PMS5003;68467;50.960;0.314;2023-04-01T11:22:37;9;8;
64627;PMS5003;68467;50.960;0.314;2023-04-01T11:25:19;13;12;
64627;PMS5003;68467;50.960;0.314;2023-04-01T11:27:58;16;15;
64627;PMS5003;68467;50.960;0.314;2023-04-01T11:30:57;12;9;
64627;PMS5003;68467;50.960;0.314;2023-04-01T11:33:33;7;7;
64627;PMS5003;68467;50.960;0.314;2023-04-01T11:36:11;7;7;
64627;PMS5003;68467;50.960;0.314;2023-04-01T11:38:54;6;6;
64627;PMS5003;68467;50.960;0.314;2023-04-01T11:41:32;9;8;
64627;PMS5003;68467;50.960;0.314;2023-04-01T11:44:11;9;6;
64627;PMS5003;68467;50.960;0.314;2023-04-01T11:46:48;10;9;
64627;PMS5003;68467;50.960;0.314;2023-04-01T11:49:30;7;7;
64627;PMS5003;68467;50.960;0.314;2023-04-01T11:52:19;7;6;
64627;PMS5003;68467;50.960;0.314;2023-04-01T11:55:02;4;4;
64627;PMS5003;68467;50.960;0.314;2023-04-01T11:57:43;5;4;
64627;PMS5003;68467;50.960;0.314;2023-04-01T12:00:33;7;7;
64627;PMS5003;68467;50.960;0.314;2023-04-01T12:03:18;5;5;
64627;PMS5003;68467;50.960;0.314;2023-04-01T12:06:02;5;5;
64627;PMS5003;68467;50.960;0.314;2023-04-01T12:08:39;6;6;
64627;PMS5003;68467;50.960;0.314;2023-04-01T12:11:19;6;6;
64627;PMS5003;68467;50.960;0.314;2023-04-01T12:13:53;7;7;
64627;PMS5003;68467;50.960;0.314;2023-04-01T12:16:37;8;8;
64627;PMS5003;68467;50.960;0.314;2023-04-01T12:19:17;12;10;
64627;PMS5003;68467;50.960;0.314;2023-04-01T12:21:54;9;9;
64627;PMS5003;68467;50.960;0.314;2023-04-01T12:24:36;10;10;
64627;PMS5003;68467;50.960;0.314;2023-04-01T12:27:14;8;8;
64627;PMS5003;68467;50.960;0.314;2023-04-01T12:30:15;7;6;
64627;PMS5003;68467;50.960;0.314;2023-04-01T12:30:42;7;6;
64627;PMS5003;68467;50.960;0.314;2023-04-01T12:33:24;7;6;
64627;PMS5003;68467;50.960;0.314;2023-04-01T12:36:06;6;6;
64627;PMS5003;68467;50.960;0.314;2023-04-01T12:38:46;7;6;
64627;PMS5003;68467;50.960;0.314;2023-04-01T12:41:26;8;6;
64627;PMS5003;68467;50.960;0.314;2023-04-01T12:44:10;4;3;
64627;PMS5003;68467;50.960;0.314;2023-04-01T12:46:50;5;5;
64627;PMS5003;68467;50.960;0.314;2023-04-01T12:49:33;8;7;
64627;PMS5003;68467;50.960;0.314;2023-04-01T12:52:14;8;7;
64627;PMS5003;68467;50.960;0.314;2023-04-01T12:55:19;6;6;
64627;PMS5003;68467;50.960;0.314;2023-04-01T12:58:06;9;9;
64627;PMS5003;68467;50.960;0.314;2023-04-01T13:00:55;8;8;
64627;PMS5003;68467;50.960;0.314;2023-04-01T13:03:39;8;7;
64627;PMS5003;68467;50.960;0.314;2023-04-01T13:06:20;5;5;
64627;PMS5003;68467;50.960;0.314;2023-04-01T13:08:58;9;7;
64627;PMS5003;68467;50.960;0.314;2023-04-01T13:11:35;9;6;
64627;PMS5003;68467;50.960;0.314;2023-04-01T13:14:34;6;6;
64627;PMS5003;68467;50.960;0.314;2023-04-01T13:17:12;9;8;
64627;PMS5003;68467;50.960;0.314;2023-04-01T13:19:47;8;8;
64627;PMS5003;68467;50.960;0.314;2023-04-01T13:22:20;8;8;
64627;PMS5003;68467;50.960;0.314;2023-04-01T13:24:55;9;8;
64627;PMS5003;68467;50.960;0.314;2023-04-01T13:27:30;8;8;
64627;PMS5003;68467;50.960;0.314;2023-04-01T13:30:04;8;8;
64627;PMS5003;68467;50.960;0.314;2023-04-01T13:32:50;4;4;
64627;PMS5003;68467;50.960;0.314;2023-04-01T13:35:27;6;6;
64627;PMS5003;68467;50.960;0.314;2023-04-01T13:38:06;5;5;
64627;PMS5003;68467;50.960;0.314;2023-04-01T13:40:49;5;4;
64627;PMS5003;68467;50.960;0.314;2023-04-01T13:43:24;5;4;
64627;PMS5003;68467;50.960;0.314;2023-04-01T13:46:03;9;7;
64627;PMS5003;68467;50.960;0.314;2023-04-01T13:48:46;5;5;
64627;PMS5003;68467;50.960;0.314;2023-04-01T13:51:45;9;8;
64627;PMS5003;68467;50.960;0.314;2023-04-01T13:54:28;9;8;
64627;PMS5003;68467;50.960;0.314;2023-04-01T13:57:19;7;7;
64627;PMS5003;68467;50.960;0.314;2023-04-01T13:59:59;9;9;
64627;PMS5003;68467;50.960;0.314;2023-04-01T14:02:51;7;7;
64627;PMS5003;68467;50.960;0.314;2023-04-01T14:06:03;7;7;
64627;PMS5003;68467;50.960;0.314;2023-04-01T14:08:42;7;7;
64627;PMS5003;68467;50.960;0.314;2023-04-01T14:11:24;6;5;
64627;PMS5003;68467;50.960;0.314;2023-04-01T14:13:59;8;8;
64627;PMS5003;68467;50.960;0.314;2023-04-01T14:16:47;7;6;
64627;PMS5003;68467;50.960;0.314;2023-04-01T14:19:29;9;9;
64627;PMS5003;68467;50.960;0.314;2023-04-01T14:22:13;10;8;
64627;PMS5003;68467;50.960;0.314;2023-04-01T14:24:56;7;7;
64627;PMS5003;68467;50.960;0.314;2023-04-01T14:28:09;4;4;
64627;PMS5003;68467;50.960;0.314;2023-04-01T14:30:48;4;4;
64627;PMS5003;68467;50.960;0.314;2023-04-01T14:33:30;4;4;
64627;PMS5003;68467;50.960;0.314;2023-04-01T14:36:16;4;3;
64627;PMS5003;68467;50.960;0.314;2023-04-01T14:39:07;4;4;
64627;PMS5003;68467;50.960;0.314;2023-04-01T14:41:46;6;5;
64627;PMS5003;68467;50.960;0.314;2023-04-01T14:44:20;5;5;
64627;PMS5003;68467;50.960;0.314;2023-04-01T14:47:06;6;4;
64627;PMS5003;68467;50.960;0.314;2023-04-01T14:49:46;6;6;
64627;PMS5003;68467;50.960;0.314;2023-04-01T14:52:17;4;4;
64627;PMS5003;68467;50.960;0.314;2023-04-01T14:54:53;5;5;
64627;PMS5003;68467;50.960;0.314;2023-04-01T14:57:23;4;4;
64627;PMS5003;68467;50.960;0.314;2023-04-01T14:59:51;5;5;
64627;PMS5003;68467;50.960;0.314;2023-04-01T15:02:31;8;6;
64627;PMS5003;68467;50.960;0.314;2023-04-01T15:05:12;4;4;
64627;PMS5003;68467;50.960;0.314;2023-04-01T15:07:47;2;2;
64627;PMS5003;68467;50.960;0.314;2023-04-01T15:10:30;6;6;
64627;PMS5003;68467;50.960;0.314;2023-04-01T15:13:23;6;6;
64627;PMS5003;68467;50.960;0.314;2023-04-01T15:16:05;4;4;
64627;PMS5003;68467;50.960;0.314;2023-04-01T15:18:44;9;9;
64627;PMS5003;68467;50.960;0.314;2023-04-01T15:21:25;10;9;
64627;PMS5003;68467;50.960;0.314;2023-04-01T15:24:06;6;6;
64627;PMS5003;68467;50.960;0.314;2023-04-01T15:26:47;5;5;
64627;PMS5003;68467;50.960;0.314;2023-04-01T15:29:37;8;7;
64627;PMS5003;68467;50.960;0.314;2023-04-01T15:32:15;7;7;
64627;PMS5003;68467;50.960;0.314;2023-04-01T15:34:49;8;8;
64627;PMS5003;68467;50.960;0.314;2023-04-01T15:37:27;9;9;
64627;PMS5003;68467;50.960;0.314;2023-04-01T15:40:07;6;5;
64627;PMS5003;68467;50.960;0.314;2023-04-01T15:42:51;8;7;
64627;PMS5003;68467;50.960;0.314;2023-04-01T15:45:31;7;7;
64627;PMS5003;68467;50.960;0.314;2023-04-01T15:48:06;8;7;
64627;PMS5003;68467;50.960;0.314;2023-04-01T15:50:52;9;8;
64627;PMS5003;68467;50.960;0.314;2023-04-01T15:53:33;8;8;
64627;PMS5003;68467;50.960;0.314;2023-04-01T15:56:15;7;7;
64627;PMS5003;68467;50.960;0.314;2023-04-01T15:58:52;9;8;
64627;PMS5003;68467;50.960;0.314;2023-04-01T16:01:34;18;18;
64627;PMS5003;68467;50.960;0.314;2023-04-01T16:04:12;14;13;
64627;PMS5003;68467;50.960;0.314;2023-04-01T16:06:58;18;17;
64627;PMS5003;68467;50.960;0.314;2023-04-01T16:09:39;12;12;
64627;PMS5003;68467;50.960;0.314;2023-04-01T16:12:18;8;8;
64627;PMS5003;68467;50.960;0.314;2023-04-01T16:14:54;9;9;
64627;PMS5003;68467;50.960;0.314;2023-04-01T16:17:38;6;6;
64627;PMS5003;68467;50.960;0.314;2023-04-01T16:20:21;22;21;
64627;PMS5003;68467;50.960;0.314;2023-04-01T16:23:00;17;16;
64627;PMS5003;68467;50.960;0.314;2023-04-01T16:25:38;16;15;
64627;PMS5003;68467;50.960;0.314;2023-04-01T16:28:13;14;14;
64627;PMS5003;68467;50.960;0.314;2023-04-01T16:30:46;13;13;
64627;PMS5003;68467;50.960;0.314;2023-04-01T16:33:20;60;54;
64627;PMS5003;68467;50.960;0.314;2023-04-01T16:35:53;86;80;
64627;PMS5003;68467;50.960;0.314;2023-04-01T16:38:26;43;42;
64627;PMS5003;68467;50.960;0.314;2023-04-01T16:41:07;17;17;
64627;PMS5003;68467;50.960;0.314;2023-04-01T16:43:41;19;17;
64627;PMS5003;68467;50.960;0.314;2023-04-01T16:46:16;24;23;
64627;PMS5003;68467;50.960;0.314;2023-04-01T16:48:58;12;12;
64627;PMS5003;68467;50.960;0.314;2023-04-01T16:51:33;13;12;
64627;PMS5003;68467;50.960;0.314;2023-04-01T16:54:05;12;12;
64627;PMS5003;68467;50.960;0.314;2023-04-01T16:56:39;20;16;
64627;PMS5003;68467;50.960;0.314;2023-04-01T16:59:14;48;42;
64627;PMS5003;68467;50.960;0.314;2023-04-01T17:01:49;13;12;
64627;PMS5003;68467;50.960;0.314;2023-04-01T17:04:23;17;17;
64627;PMS5003;68467;50.960;0.314;2023-04-01T17:07:06;25;23;
64627;PMS5003;68467;50.960;0.314;2023-04-01T17:09:47;12;11;
64627;PMS5003;68467;50.960;0.314;2023-04-01T17:12:28;20;19;
64627;PMS5003;68467;50.960;0.314;2023-04-01T17:15:05;15;15;
64627;PMS5003;68467;50.960;0.314;2023-04-01T17:17:45;38;36;
64627;PMS5003;68467;50.960;0.314;2023-04-01T17:20:27;12;12;
64627;PMS5003;68467;50.960;0.314;2023-04-01T17:23:01;20;19;
64627;PMS5003;68467;50.960;0.314;2023-04-01T17:25:45;9;8;
64627;PMS5003;68467;50.960;0.314;2023-04-01T17:28:23;47;45;
64627;PMS5003;68467;50.960;0.314;2023-04-01T17:31:00;19;18;
64627;PMS5003;68467;50.960;0.314;2023-04-01T17:33:47;21;21;
64627;PMS5003;68467;50.960;0.314;2023-04-01T17:36:36;19;19;
64627;PMS5003;68467;50.960;0.314;2023-04-01T17:39:15;31;29;
64627;PMS5003;68467;50.960;0.314;2023-04-01T17:41:54;31;29;
64627;PMS5003;68467;50.960;0.314;2023-04-01T17:44:30;15;13;
64627;PMS5003;68467;50.960;0.314;2023-04-01T17:47:11;22;20;
64627;PMS5003;68467;50.960;0.314;2023-04-01T17:49:58;17;16;
64627;PMS5003;68467;50.960;0.314;2023-04-01T17:52:36;20;19;
64627;PMS5003;68467;50.960;0.314;2023-04-01T17:55:37;19;18;
64627;PMS5003;68467;50.960;0.314;2023-04-01T17:58:14;16;15;
64627;PMS5003;68467;50.960;0.314;2023-04-01T18:00:49;23;22;